createdAt,value
2022-08-03T00:01:36.596Z,100278.03
2022-08-03T00:04:39.006Z,100276.50
2022-08-03T00:07:41.215Z,100281.97
2022-08-03T00:10:43.670Z,100278.84
2022-08-03T00:13:45.788Z,100280.44
2022-08-03T00:16:48.190Z,100281.56
2022-08-03T00:19:50.309Z,100288.22
2022-08-03T00:22:52.798Z,100292.09
2022-08-03T00:25:54.927Z,100290.41
2022-08-03T00:28:57.351Z,100294.28
2022-08-03T00:32:00.583Z,100289.50
2022-08-03T00:35:08.355Z,100298.88
2022-08-03T00:38:11.983Z,100296.88
2022-08-03T00:41:15.743Z,100301.06
2022-08-03T00:44:17.967Z,100296.28
2022-08-03T00:47:20.343Z,100296.53
2022-08-03T00:50:24.274Z,100301.25
2022-08-03T00:53:27.703Z,100299.22
2022-08-03T00:56:29.863Z,100304.28
2022-08-03T00:59:32.610Z,100305.06
2022-08-03T01:02:34.821Z,100297.53
2022-08-03T01:05:52.243Z,100302.56
2022-08-03T01:09:19.403Z,100308.22
2022-08-03T01:12:42.327Z,100301.91
2022-08-03T01:15:49.408Z,100302.53
2022-08-03T01:19:00.159Z,100303.03
2022-08-03T01:22:05.077Z,100304.69
2022-08-03T01:25:36.455Z,100310.56
2022-08-03T01:28:57.478Z,100308.97
2022-08-03T01:32:58.715Z,100309.69
2022-08-03T01:35:45.154Z,100308.72
2022-08-03T01:38:53.744Z,100313.44
2022-08-03T01:42:06.104Z,100309.94
2022-08-03T01:45:12.710Z,100311.94
2022-08-03T01:48:18.631Z,100301.69
2022-08-03T01:51:22.338Z,100304.72
2022-08-03T01:54:25.995Z,100300.88
2022-08-03T01:57:29.686Z,100301.69
2022-08-03T02:00:33.064Z,100300.09
2022-08-03T02:03:58.064Z,100306.38
2022-08-03T02:07:03.428Z,100306.38
2022-08-03T02:10:07.450Z,100304.41
2022-08-03T02:13:10.565Z,100311.84
2022-08-03T02:16:14.328Z,100306.38
2022-08-03T02:19:18.129Z,100310.28
2022-08-03T02:22:22.531Z,100308.66
2022-08-03T02:25:24.790Z,100304.72
2022-08-03T02:28:33.098Z,100305.84
2022-08-03T02:31:37.834Z,100308.03
2022-08-03T02:34:45.129Z,100302.16
2022-08-03T02:37:52.221Z,100306.38
2022-08-03T02:40:57.404Z,100309.00
2022-08-03T02:44:07.111Z,100321.69
2022-08-03T02:47:12.427Z,100313.91
2022-08-03T02:50:16.770Z,100320.00
2022-08-03T02:53:21.322Z,100316.41
2022-08-03T02:56:27.354Z,100317.19
2022-08-03T02:59:31.392Z,100317.19
2022-08-03T03:02:34.940Z,100325.37
2022-08-03T03:05:54.490Z,100323.31
2022-08-03T03:09:00.383Z,100322.16
2022-08-03T03:12:03.229Z,100310.66
2022-08-03T03:15:06.620Z,100312.94
2022-08-03T03:18:10.091Z,100314.84
2022-08-03T03:21:14.307Z,100312.84
2022-08-03T03:24:17.072Z,100318.59
2022-08-03T03:27:19.412Z,100318.25
2022-08-03T03:30:23.723Z,100315.53
2022-08-03T03:33:28.408Z,100319.41
2022-08-03T03:36:31.137Z,100319.72
2022-08-03T03:39:33.513Z,100319.34
2022-08-03T03:42:36.172Z,100312.00
2022-08-03T03:45:40.582Z,100320.44
2022-08-03T03:48:44.090Z,100319.59
2022-08-03T03:51:46.238Z,100324.34
2022-08-03T03:54:48.661Z,100326.69
2022-08-03T03:57:50.983Z,100330.69
2022-08-03T04:00:53.932Z,100325.91
2022-08-03T04:03:56.573Z,100330.19
2022-08-03T04:07:17.302Z,100331.34
2022-08-03T04:10:41.648Z,100323.53
2022-08-03T04:13:51.640Z,100331.47
2022-08-03T04:17:01.804Z,100331.09
2022-08-03T04:20:05.483Z,100336.94
2022-08-03T04:23:13.721Z,100347.12
2022-08-03T04:26:21.516Z,100346.31
2022-08-03T04:29:26.036Z,100345.59
2022-08-03T04:32:29.710Z,100349.47
2022-08-03T04:35:59.782Z,100352.53
2022-08-03T04:39:08.374Z,100357.62
2022-08-03T04:42:13.968Z,100353.00
2022-08-03T04:45:18.425Z,100365.97
2022-08-03T04:48:21.224Z,100361.00
2022-08-03T04:51:23.665Z,100364.19
2022-08-03T04:54:26.079Z,100363.00
2022-08-03T04:57:28.236Z,100365.81
2022-08-03T05:00:30.656Z,100371.34
2022-08-03T05:03:32.864Z,100385.97
2022-08-03T05:06:35.439Z,100383.66
2022-08-03T05:09:52.185Z,100382.97
2022-08-03T05:12:55.353Z,100381.97
2022-08-03T05:15:57.677Z,100391.09
2022-08-03T05:19:00.064Z,100386.50
2022-08-03T05:22:02.243Z,100388.16
2022-08-03T05:25:05.127Z,100389.47
2022-08-03T05:28:07.334Z,100397.41
2022-08-03T05:31:09.779Z,100396.37
2022-08-03T05:34:11.895Z,100396.94
2022-08-03T05:37:14.330Z,100401.03
2022-08-03T05:40:16.750Z,100398.38
2022-08-03T05:43:19.234Z,100388.69
2022-08-03T05:46:24.866Z,100400.59
2022-08-03T05:49:27.424Z,100399.13
2022-08-03T05:52:29.604Z,100398.91
2022-08-03T05:55:32.298Z,100406.44
2022-08-03T05:58:34.427Z,100408.91
2022-08-03T06:01:37.036Z,100406.28
2022-08-03T06:04:39.613Z,100412.31
2022-08-03T06:07:41.865Z,100416.00
2022-08-03T06:10:44.290Z,100419.34
2022-08-03T06:13:46.484Z,100424.94
2022-08-03T06:16:48.848Z,100426.28
2022-08-03T06:19:53.546Z,100426.06
2022-08-03T06:23:00.223Z,100422.97
2022-08-03T06:26:03.430Z,100415.19
2022-08-03T06:29:06.006Z,100427.88
2022-08-03T06:32:12.075Z,100422.47
2022-08-03T06:35:14.552Z,100433.53
2022-08-03T06:38:16.774Z,100432.47
2022-08-03T06:41:19.164Z,100428.19
2022-08-03T06:44:21.310Z,100423.50
2022-08-03T06:47:23.698Z,100431.41
2022-08-03T06:50:26.291Z,100437.34
2022-08-03T06:53:28.816Z,100427.94
2022-08-03T06:56:30.975Z,100429.91
2022-08-03T07:00:09.093Z,100437.00
2022-08-03T07:02:58.318Z,100441.38
2022-08-03T07:06:01.202Z,100440.66
2022-08-03T07:09:03.509Z,100436.75
2022-08-03T07:12:06.670Z,100441.84
2022-08-03T07:15:09.177Z,100438.72
2022-08-03T07:18:29.250Z,100441.50
2022-08-03T07:21:32.261Z,100437.56
2022-08-03T07:24:35.004Z,100432.44
2022-08-03T07:27:38.242Z,100434.78
2022-08-03T07:30:40.843Z,100438.66
2022-08-03T07:33:42.964Z,100439.41
2022-08-03T07:36:45.513Z,100439.28
2022-08-03T07:39:47.828Z,100437.53
2022-08-03T07:42:53.400Z,100434.97
2022-08-03T07:45:55.780Z,100433.94
2022-08-03T07:48:58.275Z,100440.75
2022-08-03T07:52:19.339Z,100437.37
2022-08-03T07:55:25.050Z,100437.00
2022-08-03T07:58:27.160Z,100431.13
2022-08-03T08:01:30.295Z,100426.91
2022-08-03T08:04:32.879Z,100428.81
2022-08-03T08:07:35.028Z,100428.69
2022-08-03T08:10:37.621Z,100438.97
2022-08-03T08:13:39.753Z,100429.22
2022-08-03T08:16:42.524Z,100433.97
2022-08-03T08:19:51.457Z,100437.72
2022-08-03T08:22:56.912Z,100436.25
2022-08-03T08:25:59.377Z,100433.56
2022-08-03T08:29:01.734Z,100438.38
2022-08-03T08:32:04.237Z,100438.50
2022-08-03T08:35:09.821Z,100428.97
2022-08-03T08:38:12.128Z,100423.87
2022-08-03T08:41:15.651Z,100426.63
2022-08-03T08:44:17.774Z,100426.63
2022-08-03T08:47:26.039Z,100424.72
2022-08-03T08:50:28.498Z,100422.31
2022-08-03T08:53:33.206Z,100418.50
2022-08-03T08:56:37.101Z,100421.19
2022-08-03T08:59:49.051Z,100410.94
2022-08-03T09:02:52.530Z,100414.81
2022-08-03T09:05:56.419Z,100415.00
2022-08-03T09:08:58.710Z,100415.94
2022-08-03T09:12:20.872Z,100406.78
2022-08-03T09:15:26.632Z,100410.63
2022-08-03T09:18:32.591Z,100414.22
2022-08-03T09:21:35.308Z,100403.66
2022-08-03T09:24:41.558Z,100405.44
2022-08-03T09:27:45.945Z,100408.44
2022-08-03T09:30:59.755Z,100403.91
2022-08-03T09:34:06.885Z,100401.84
2022-08-03T09:37:15.991Z,100397.44
2022-08-03T09:40:34.533Z,100395.78
2022-08-03T09:43:47.061Z,100400.50
2022-08-03T09:46:58.579Z,100396.25
2022-08-03T09:50:04.163Z,100396.25
2022-08-03T09:53:06.316Z,100386.75
2022-08-03T09:56:34.285Z,100385.84
2022-08-03T09:59:33.466Z,100383.66
2022-08-03T10:02:36.979Z,100382.25
2022-08-03T10:05:44.517Z,100375.38
2022-08-03T10:08:47.173Z,100373.34
2022-08-03T10:11:49.721Z,100370.56
2022-08-03T10:14:52.629Z,100366.19
2022-08-03T10:17:55.019Z,100367.88
2022-08-03T10:21:06.295Z,100367.91
2022-08-03T10:24:10.688Z,100376.16
2022-08-03T10:27:14.866Z,100365.87
2022-08-03T10:30:17.634Z,100358.09
2022-08-03T10:33:50.277Z,100358.50
2022-08-03T10:36:53.644Z,100366.97
2022-08-03T10:39:57.997Z,100358.31
2022-08-03T10:43:09.919Z,100353.84
2022-08-03T10:46:14.215Z,100355.50
2022-08-03T10:49:33.547Z,100350.56
2022-08-03T10:52:56.707Z,100341.44
2022-08-03T10:56:18.179Z,100330.69
2022-08-03T10:59:46.493Z,100333.31
2022-08-03T11:03:08.949Z,100328.03
2022-08-03T11:06:21.791Z,100330.66
2022-08-03T11:09:24.249Z,100324.91
2022-08-03T11:12:32.734Z,100321.03
2022-08-03T11:15:35.994Z,100308.09
2022-08-03T11:18:56.214Z,100306.19
2022-08-03T11:22:00.214Z,100303.06
2022-08-03T11:25:02.598Z,100295.25
2022-08-03T11:28:30.700Z,100292.16
2022-08-03T11:31:51.884Z,100295.44
2022-08-03T11:35:06.754Z,100294.78
2022-08-03T11:38:10.558Z,100300.53
2022-08-03T11:41:33.006Z,100293.38
2022-08-03T11:44:47.486Z,100291.22
2022-08-03T11:47:54.492Z,100282.66
2022-08-03T11:50:56.898Z,100279.69
2022-08-03T11:54:04.639Z,100282.66
2022-08-03T11:57:06.926Z,100290.59
2022-08-03T12:00:26.210Z,100281.09
2022-08-03T12:03:33.034Z,100282.41
2022-08-03T12:06:55.072Z,100271.66
2022-08-03T12:10:14.295Z,100277.28
2022-08-03T12:14:33.107Z,100272.44
2022-08-03T12:16:40.043Z,100276.09
2022-08-03T12:19:43.873Z,100271.06
2022-08-03T12:22:46.303Z,100266.91
2022-08-03T12:25:49.544Z,100265.94
2022-08-03T12:28:52.247Z,100260.41
2022-08-03T12:31:56.144Z,100256.41
2022-08-03T12:35:01.252Z,100254.56
2022-08-03T12:38:04.247Z,100238.53
2022-08-03T12:41:13.525Z,100244.78
2022-08-03T12:44:15.702Z,100244.72
2022-08-03T12:47:18.258Z,100247.19
2022-08-03T12:50:28.003Z,100244.47
2022-08-03T12:53:30.428Z,100239.94
2022-08-03T12:56:32.784Z,100235.59
2022-08-03T12:59:40.710Z,100234.50
2022-08-03T13:02:46.474Z,100234.81
2022-08-03T13:05:49.128Z,100239.09
2022-08-03T13:09:03.667Z,100234.63
2022-08-03T13:12:10.513Z,100220.66
2022-08-03T13:15:12.660Z,100230.75
2022-08-03T13:18:17.329Z,100219.72
2022-08-03T13:21:21.230Z,100216.72
2022-08-03T13:24:23.868Z,100217.50
2022-08-03T13:28:11.118Z,100209.87
2022-08-03T13:30:49.726Z,100213.28
2022-08-03T13:33:51.884Z,100204.13
2022-08-03T13:37:10.444Z,100200.84
2022-08-03T13:40:12.647Z,100202.97
2022-08-03T13:43:17.182Z,100204.81
2022-08-03T13:46:20.298Z,100202.03
2022-08-03T13:49:22.927Z,100199.84
2022-08-03T13:52:25.160Z,100198.25
2022-08-03T13:55:27.662Z,100186.53
2022-08-03T13:58:29.798Z,100182.81
2022-08-03T14:01:54.185Z,100189.22
2022-08-03T14:04:54.855Z,100183.75
2022-08-03T14:07:58.293Z,100173.34
2022-08-03T14:11:07.491Z,100171.00
2022-08-03T14:14:09.690Z,100170.34
2022-08-03T14:17:12.118Z,100167.25
2022-08-03T14:20:37.359Z,100172.13
2022-08-03T14:23:38.440Z,100156.91
2022-08-03T14:26:40.551Z,100152.53
2022-08-03T14:29:43.040Z,100154.44
2022-08-03T14:32:47.288Z,100149.13
2022-08-03T14:35:50.556Z,100156.59
2022-08-03T14:38:52.740Z,100159.56
2022-08-03T14:41:55.232Z,100147.62
2022-08-03T14:45:02.430Z,100149.47
2022-08-03T14:50:27.908Z,100141.84
2022-08-03T14:51:29.883Z,100149.13
2022-08-03T14:54:34.257Z,100133.47
2022-08-03T14:57:36.445Z,100142.94
2022-08-03T15:00:38.904Z,100138.87
2022-08-03T15:03:41.158Z,100139.66
2022-08-03T15:06:43.592Z,100132.03
2022-08-03T15:09:50.698Z,100135.16
2022-08-03T15:12:55.124Z,100146.97
2022-08-03T15:15:57.890Z,100142.28
2022-08-03T15:19:00.868Z,100144.72
2022-08-03T15:22:03.157Z,100132.63
2022-08-03T15:26:01.712Z,100129.50
2022-08-03T15:28:28.344Z,100130.56
2022-08-03T15:31:30.757Z,100132.56
2022-08-03T15:34:33.059Z,100130.38
2022-08-03T15:37:35.571Z,100131.44
2022-08-03T15:40:37.998Z,100131.19
2022-08-03T15:43:41.525Z,100126.97
2022-08-03T15:46:53.075Z,100126.84
2022-08-03T15:49:55.582Z,100129.66
2022-08-03T15:52:57.732Z,100122.47
2022-08-03T15:56:00.849Z,100119.66
2022-08-03T15:59:12.303Z,100118.37
2022-08-03T16:02:16.457Z,100119.78
2022-08-03T16:05:18.844Z,100127.72
2022-08-03T16:08:21.145Z,100123.81
2022-08-03T16:11:23.626Z,100107.19
2022-08-03T16:14:33.357Z,100114.47
2022-08-03T16:17:41.106Z,100118.03
2022-08-03T16:20:44.760Z,100116.81
2022-08-03T16:23:48.155Z,100113.97
2022-08-03T16:26:50.270Z,100118.94
2022-08-03T16:29:52.826Z,100117.28
2022-08-03T16:32:55.077Z,100116.00
2022-08-03T16:35:57.462Z,100117.72
2022-08-03T16:38:59.617Z,100115.78
2022-08-03T16:42:02.313Z,100114.56
2022-08-03T16:45:06.386Z,100107.06
2022-08-03T16:48:08.815Z,100107.06
2022-08-03T16:51:10.926Z,100112.00
2022-08-03T16:54:14.065Z,100118.37
2022-08-03T16:57:29.740Z,100111.69
2022-08-03T17:00:41.236Z,100109.59
2022-08-03T17:04:01.793Z,100118.22
2022-08-03T17:07:06.946Z,100117.66
2022-08-03T17:10:12.603Z,100118.69
2022-08-03T17:13:21.755Z,100126.41
2022-08-03T17:16:25.278Z,100125.28
2022-08-03T17:19:30.730Z,100128.22
2022-08-03T17:22:39.263Z,100124.75
2022-08-03T17:26:01.994Z,100137.28
2022-08-03T17:29:11.223Z,100135.03
2022-08-03T17:32:21.169Z,100134.50
2022-08-03T17:35:23.986Z,100137.41
2022-08-03T17:38:31.846Z,100140.94
2022-08-03T17:41:34.055Z,100144.66
2022-08-03T17:44:46.030Z,100142.09
2022-08-03T17:47:57.801Z,100144.75
2022-08-03T17:51:06.646Z,100147.53
2022-08-03T17:54:27.143Z,100149.84
2022-08-03T17:58:02.310Z,100145.91
2022-08-03T18:02:03.319Z,100155.00
2022-08-03T18:08:32.265Z,100156.69
2022-08-03T18:11:37.085Z,100143.56
2022-08-03T18:14:57.331Z,100145.53
2022-08-03T18:18:10.926Z,100157.19
2022-08-03T18:21:17.054Z,100158.91
2022-08-03T18:24:20.690Z,100167.19
2022-08-03T18:27:42.660Z,100169.00
2022-08-03T18:30:54.776Z,100171.16
2022-08-03T18:37:25.104Z,100171.59
2022-08-03T18:40:28.451Z,100170.19
2022-08-03T18:43:46.744Z,100179.63
2022-08-03T18:47:22.012Z,100176.22
2022-08-03T18:50:39.147Z,100174.84
2022-08-03T18:57:07.372Z,100188.97
2022-08-03T19:00:24.268Z,100188.84
2022-08-03T19:03:41.274Z,100198.97
2022-08-03T19:06:49.028Z,100201.09
2022-08-03T19:09:58.285Z,100206.22
2022-08-03T19:13:14.108Z,100200.78
2022-08-03T19:16:38.730Z,100208.06
2022-08-03T19:19:44.883Z,100208.19
2022-08-03T19:22:48.249Z,100211.97
2022-08-03T19:25:51.191Z,100215.62
2022-08-03T19:28:57.051Z,100212.19
2022-08-03T19:32:02.000Z,100211.91
2022-08-03T19:35:09.431Z,100208.03
2022-08-03T19:38:17.411Z,100225.94
2022-08-03T19:41:41.947Z,100224.00
2022-08-03T19:44:50.464Z,100222.59
2022-08-03T19:48:08.026Z,100217.94
2022-08-03T19:51:12.696Z,100226.78
2022-08-03T19:54:16.079Z,100226.50
2022-08-03T19:57:19.850Z,100230.94
2022-08-03T20:00:26.537Z,100233.37
2022-08-03T20:03:43.010Z,100235.38
2022-08-03T20:06:47.019Z,100238.25
2022-08-03T20:09:54.505Z,100236.34
2022-08-03T20:12:59.539Z,100243.59
2022-08-03T20:16:02.014Z,100240.91
2022-08-03T20:19:04.269Z,100242.16
2022-08-03T20:22:17.721Z,100236.72
2022-08-03T20:25:38.905Z,100230.47
2022-08-03T20:28:49.825Z,100229.00
2022-08-03T20:31:53.917Z,100232.97
2022-08-03T20:38:27.210Z,100226.38
2022-08-03T20:41:30.734Z,100228.34
2022-08-03T20:44:34.166Z,100227.88
2022-08-03T20:47:50.226Z,100232.47
2022-08-03T20:50:55.344Z,100232.00
2022-08-03T20:54:01.693Z,100218.50
2022-08-03T20:57:10.059Z,100225.59
2022-08-03T21:00:13.895Z,100225.94
2022-08-03T21:03:16.792Z,100229.84
2022-08-03T21:09:52.189Z,100219.47
2022-08-03T21:12:58.400Z,100175.78
2022-08-03T21:13:04.167Z,100143.50
2022-08-03T21:13:07.169Z,100227.47
2022-08-03T21:13:08.461Z,100185.69
2022-08-03T21:13:13.764Z,100218.69
2022-08-03T21:13:13.804Z,100218.31
2022-08-03T21:16:21.648Z,100232.19
2022-08-03T21:19:29.612Z,100226.31
2022-08-03T21:22:35.486Z,100233.13
2022-08-03T21:25:40.432Z,100236.44
2022-08-03T21:28:43.042Z,100242.84
2022-08-03T21:31:46.657Z,100244.19
2022-08-03T21:34:50.930Z,100245.53
2022-08-03T21:38:12.975Z,100251.16
2022-08-03T21:41:15.122Z,100256.78
2022-08-03T21:44:18.421Z,100251.31
2022-08-03T21:47:37.129Z,100254.16
2022-08-03T21:50:41.461Z,100263.69
2022-08-03T21:54:03.560Z,100265.69
2022-08-03T21:57:17.379Z,100264.13
2022-08-03T22:00:21.635Z,100268.94
2022-08-03T22:03:28.098Z,100264.63
2022-08-03T22:06:30.780Z,100269.78
2022-08-03T22:09:35.209Z,100274.94
2022-08-03T22:12:37.825Z,100273.78
2022-08-03T22:15:41.012Z,100267.09
2022-08-03T22:18:45.179Z,100271.06
2022-08-03T22:21:48.820Z,100269.12
2022-08-03T22:24:56.447Z,100265.16
2022-08-03T22:28:02.139Z,100274.63
2022-08-03T22:31:37.670Z,100278.19
2022-08-03T22:34:28.409Z,100276.22
2022-08-03T22:37:32.198Z,100281.37
2022-08-03T22:40:37.198Z,100282.97
2022-08-03T22:43:39.709Z,100286.53
2022-08-03T22:46:43.295Z,100283.38
2022-08-03T22:49:46.369Z,100286.53
2022-08-03T22:53:09.630Z,100288.50
2022-08-03T22:56:12.438Z,100286.56
2022-08-03T22:59:41.100Z,100290.50
2022-08-03T23:02:40.390Z,100295.22
2022-08-03T23:06:01.087Z,100293.69
2022-08-03T23:09:10.817Z,100297.63
2022-08-03T23:12:17.093Z,100298.41
2022-08-03T23:15:19.573Z,100302.75
2022-08-03T23:18:23.360Z,100307.06
2022-08-03T23:22:00.561Z,100302.34
2022-08-03T23:24:52.133Z,100300.75
2022-08-03T23:28:05.173Z,100304.28
2022-08-03T23:31:08.946Z,100306.25
2022-08-03T23:34:32.480Z,100303.47
2022-08-03T23:38:04.760Z,100309.34
2022-08-03T23:40:59.634Z,100306.19
2022-08-03T23:44:04.388Z,100303.03
2022-08-03T23:47:06.554Z,100306.94
2022-08-03T23:50:08.976Z,100315.63
2022-08-03T23:53:23.214Z,100305.44
2022-08-03T23:56:49.679Z,100298.37
